sensor_id;sensor_type;location;lat;lon;timestamp;pressure;altitude;pressure_sealevel;temperature;humidity
49216;BME280;45943;53.148;8.204;2022-12-05T00:01:15;102049.63;;;5.56;100.00
49216;BME280;45943;53.148;8.204;2022-12-05T00:03:51;102045.03;;;5.59;100.00
49216;BME280;45943;53.148;8.204;2022-12-05T00:06:19;102050.25;;;5.62;100.00
49216;BME280;45943;53.148;8.204;2022-12-05T00:08:46;102044.09;;;5.60;100.00
49216;BME280;45943;53.148;8.204;2022-12-05T00:11:13;102044.47;;;5.73;100.00
49216;BME280;45943;53.148;8.204;2022-12-05T00:13:44;102045.22;;;5.76;100.00
49216;BME280;45943;53.148;8.204;2022-12-05T00:16:12;102043.91;;;5.65;100.00
49216;BME280;45943;53.148;8.204;2022-12-05T00:18:40;102044.84;;;5.64;100.00
49216;BME280;45943;53.148;8.204;2022-12-05T00:21:08;102045.34;;;5.52;100.00
49216;BME280;45943;53.148;8.204;2022-12-05T00:23:38;102041.25;;;5.65;100.00
49216;BME280;45943;53.148;8.204;2022-12-05T00:26:04;102042.06;;;5.67;100.00
49216;BME280;45943;53.148;8.204;2022-12-05T00:28:31;102052.53;;;5.71;100.00
49216;BME280;45943;53.148;8.204;2022-12-05T00:31:01;102040.81;;;5.75;100.00
49216;BME280;45943;53.148;8.204;2022-12-05T00:33:35;102046.88;;;5.79;100.00
49216;BME280;45943;53.148;8.204;2022-12-05T00:36:02;102054.13;;;5.75;100.00
49216;BME280;45943;53.148;8.204;2022-12-05T00:38:29;102051.53;;;5.74;100.00
49216;BME280;45943;53.148;8.204;2022-12-05T00:40:55;102040.56;;;5.82;100.00
49216;BME280;45943;53.148;8.204;2022-12-05T00:43:26;102041.81;;;5.73;100.00
49216;BME280;45943;53.148;8.204;2022-12-05T00:45:52;102042.63;;;5.75;100.00
49216;BME280;45943;53.148;8.204;2022-12-05T00:48:18;102040.75;;;5.77;100.00
49216;BME280;45943;53.148;8.204;2022-12-05T00:50:44;102037.09;;;5.80;100.00
49216;BME280;45943;53.148;8.204;2022-12-05T00:53:10;102035.34;;;5.79;100.00
49216;BME280;45943;53.148;8.204;2022-12-05T00:55:36;102041.50;;;5.81;100.00
49216;BME280;45943;53.148;8.204;2022-12-05T00:58:02;102037.34;;;5.73;100.00
49216;BME280;45943;53.148;8.204;2022-12-05T01:00:28;102032.97;;;5.72;100.00
49216;BME280;45943;53.148;8.204;2022-12-05T01:02:54;102033.53;;;5.81;100.00
49216;BME280;45943;53.148;8.204;2022-12-05T01:05:20;102031.44;;;5.87;100.00
49216;BME280;45943;53.148;8.204;2022-12-05T01:07:46;102037.97;;;5.80;100.00
49216;BME280;45943;53.148;8.204;2022-12-05T01:10:12;102039.63;;;5.83;100.00
49216;BME280;45943;53.148;8.204;2022-12-05T01:12:38;102032.75;;;5.77;100.00
49216;BME280;45943;53.148;8.204;2022-12-05T01:15:04;102045.28;;;5.75;100.00
49216;BME280;45943;53.148;8.204;2022-12-05T01:17:30;102040.75;;;5.77;100.00
49216;BME280;45943;53.148;8.204;2022-12-05T01:19:56;102037.16;;;5.78;100.00
49216;BME280;45943;53.148;8.204;2022-12-05T01:22:22;102032.91;;;5.74;100.00
49216;BME280;45943;53.148;8.204;2022-12-05T01:24:48;102044.28;;;5.78;100.00
49216;BME280;45943;53.148;8.204;2022-12-05T01:27:14;102046.06;;;5.77;100.00
49216;BME280;45943;53.148;8.204;2022-12-05T01:29:40;102053.13;;;5.78;100.00
49216;BME280;45943;53.148;8.204;2022-12-05T01:32:06;102053.03;;;5.81;100.00
49216;BME280;45943;53.148;8.204;2022-12-05T01:34:32;102054.13;;;5.75;100.00
49216;BME280;45943;53.148;8.204;2022-12-05T01:36:58;102050.03;;;5.67;100.00
49216;BME280;45943;53.148;8.204;2022-12-05T01:39:24;102054.84;;;5.79;100.00
49216;BME280;45943;53.148;8.204;2022-12-05T01:41:50;102049.53;;;5.79;100.00
49216;BME280;45943;53.148;8.204;2022-12-05T01:46:43;102039.72;;;5.81;100.00
49216;BME280;45943;53.148;8.204;2022-12-05T01:49:16;102039.63;;;5.83;100.00
49216;BME280;45943;53.148;8.204;2022-12-05T01:51:52;102044.09;;;5.82;100.00
49216;BME280;45943;53.148;8.204;2022-12-05T01:54:21;102037.16;;;5.78;100.00
49216;BME280;45943;53.148;8.204;2022-12-05T01:56:52;102031.66;;;5.83;100.00
49216;BME280;45943;53.148;8.204;2022-12-05T01:59:24;102035.78;;;5.90;100.00
49216;BME280;45943;53.148;8.204;2022-12-05T02:01:53;102032.31;;;5.88;100.00
49216;BME280;45943;53.148;8.204;2022-12-05T02:04:19;102031.81;;;5.78;100.00
49216;BME280;45943;53.148;8.204;2022-12-05T02:06:46;102030.66;;;5.85;100.00
49216;BME280;45943;53.148;8.204;2022-12-05T02:09:12;102031.44;;;5.87;100.00
49216;BME280;45943;53.148;8.204;2022-12-05T02:11:45;102026.78;;;5.94;100.00
49216;BME280;45943;53.148;8.204;2022-12-05T02:14:27;102014.19;;;5.97;100.00
49216;BME280;45943;53.148;8.204;2022-12-05T02:20:00;102026.69;;;5.95;100.00
49216;BME280;45943;53.148;8.204;2022-12-05T02:23:35;102025.97;;;5.92;100.00
49216;BME280;45943;53.148;8.204;2022-12-05T02:28:23;102014.19;;;5.97;100.00
49216;BME280;45943;53.148;8.204;2022-12-05T02:36:38;102011.06;;;5.86;100.00
49216;BME280;45943;53.148;8.204;2022-12-05T02:39:13;102009.06;;;5.93;100.00
49216;BME280;45943;53.148;8.204;2022-12-05T02:41:49;102012.72;;;5.90;100.00
49216;BME280;45943;53.148;8.204;2022-12-05T02:44:25;102014.47;;;5.91;100.00
49216;BME280;45943;53.148;8.204;2022-12-05T02:46:59;102010.06;;;6.31;100.00
49216;BME280;45943;53.148;8.204;2022-12-05T02:49:27;102006.69;;;6.85;100.00
49216;BME280;45943;53.148;8.204;2022-12-05T02:51:57;102004.19;;;7.01;100.00
49216;BME280;45943;53.148;8.204;2022-12-05T02:54:27;102007.06;;;7.15;100.00
49216;BME280;45943;53.148;8.204;2022-12-05T02:56:56;102010.16;;;7.25;100.00
49216;BME280;45943;53.148;8.204;2022-12-05T02:59:25;102007.56;;;7.24;100.00
49216;BME280;45943;53.148;8.204;2022-12-05T03:01:51;102007.13;;;7.14;100.00
49216;BME280;45943;53.148;8.204;2022-12-05T03:04:18;102013.25;;;7.16;100.00
49216;BME280;45943;53.148;8.204;2022-12-05T03:09:29;102028.19;;;6.23;100.00
49216;BME280;45943;53.148;8.204;2022-12-05T03:14:28;102019.47;;;6.58;100.00
49216;BME280;45943;53.148;8.204;2022-12-05T03:16:59;102019.53;;;6.96;100.00
49216;BME280;45943;53.148;8.204;2022-12-05T03:19:48;102019.44;;;5.99;100.00
49216;BME280;45943;53.148;8.204;2022-12-05T03:22:25;102019.84;;;5.88;100.00
49216;BME280;45943;53.148;8.204;2022-12-05T03:25:00;102023.38;;;5.89;100.00
49216;BME280;45943;53.148;8.204;2022-12-05T03:27:39;102019.50;;;5.97;100.00
49216;BME280;45943;53.148;8.204;2022-12-05T03:30:13;102019.50;;;5.97;100.00
49216;BME280;45943;53.148;8.204;2022-12-05T03:32:54;102015.97;;;5.97;100.00
49216;BME280;45943;53.148;8.204;2022-12-05T03:38:26;102006.88;;;7.37;100.00
49216;BME280;45943;53.148;8.204;2022-12-05T03:41:08;102002.56;;;7.35;100.00
49216;BME280;45943;53.148;8.204;2022-12-05T03:43:44;102006.44;;;7.46;100.00
49216;BME280;45943;53.148;8.204;2022-12-05T03:46:25;102010.06;;;6.51;100.00
49216;BME280;45943;53.148;8.204;2022-12-05T03:51:59;102012.00;;;6.07;100.00
49216;BME280;45943;53.148;8.204;2022-12-05T03:54:36;102004.00;;;6.07;100.00
49216;BME280;45943;53.148;8.204;2022-12-05T04:05:13;102004.28;;;7.36;100.00
49216;BME280;45943;53.148;8.204;2022-12-05T04:07:47;102001.84;;;7.50;100.00
49216;BME280;45943;53.148;8.204;2022-12-05T04:10:22;102004.09;;;7.40;100.00
49216;BME280;45943;53.148;8.204;2022-12-05T04:12:52;102004.13;;;7.58;100.00
49216;BME280;45943;53.148;8.204;2022-12-05T04:15:25;102008.63;;;7.57;100.00
49216;BME280;45943;53.148;8.204;2022-12-05T04:18:18;102013.00;;;7.58;100.00
49216;BME280;45943;53.148;8.204;2022-12-05T04:20:47;102013.00;;;7.58;100.00
49216;BME280;45943;53.148;8.204;2022-12-05T04:23:33;102004.59;;;6.73;100.00
49216;BME280;45943;53.148;8.204;2022-12-05T04:28:47;102022.97;;;5.99;100.00
49216;BME280;45943;53.148;8.204;2022-12-05T04:31:22;102027.38;;;6.00;100.00
49216;BME280;45943;53.148;8.204;2022-12-05T04:33:56;102017.59;;;6.01;100.00
49216;BME280;45943;53.148;8.204;2022-12-05T04:39:12;102024.66;;;6.02;100.00
49216;BME280;45943;53.148;8.204;2022-12-05T04:41:46;102010.16;;;7.06;100.00
49216;BME280;45943;53.148;8.204;2022-12-05T04:44:17;102014.31;;;6.15;100.00
49216;BME280;45943;53.148;8.204;2022-12-05T04:46:49;102022.66;;;6.07;100.00
49216;BME280;45943;53.148;8.204;2022-12-05T04:49:21;102020.06;;;6.06;100.00
49216;BME280;45943;53.148;8.204;2022-12-05T04:51:49;102028.84;;;6.08;100.00
49216;BME280;45943;53.148;8.204;2022-12-05T04:54:20;102027.09;;;6.27;100.00
49216;BME280;45943;53.148;8.204;2022-12-05T04:56:54;102025.19;;;6.10;100.00
49216;BME280;45943;53.148;8.204;2022-12-05T04:59:29;102024.03;;;6.56;100.00
49216;BME280;45943;53.148;8.204;2022-12-05T05:01:56;102019.00;;;6.10;100.00
49216;BME280;45943;53.148;8.204;2022-12-05T05:04:48;102018.47;;;6.01;100.00
49216;BME280;45943;53.148;8.204;2022-12-05T05:07:17;102019.31;;;6.02;100.00
49216;BME280;45943;53.148;8.204;2022-12-05T05:09:44;102020.84;;;6.08;100.00
49216;BME280;45943;53.148;8.204;2022-12-05T05:12:10;102018.94;;;6.11;100.00
49216;BME280;45943;53.148;8.204;2022-12-05T05:14:36;102014.47;;;6.12;100.00
49216;BME280;45943;53.148;8.204;2022-12-05T05:17:02;102012.53;;;6.15;100.00
49216;BME280;45943;53.148;8.204;2022-12-05T05:19:28;102012.38;;;6.18;100.00
49216;BME280;45943;53.148;8.204;2022-12-05T05:21:55;102015.91;;;6.19;100.00
49216;BME280;45943;53.148;8.204;2022-12-05T05:24:21;102016.66;;;6.22;100.00
49216;BME280;45943;53.148;8.204;2022-12-05T05:26:48;102016.53;;;6.25;100.00
49216;BME280;45943;53.148;8.204;2022-12-05T05:29:14;102014.66;;;6.27;100.00
49216;BME280;45943;53.148;8.204;2022-12-05T05:31:41;102009.31;;;6.27;100.00
49216;BME280;45943;53.148;8.204;2022-12-05T05:34:07;102008.34;;;6.30;100.00
49216;BME280;45943;53.148;8.204;2022-12-05T05:36:34;102009.06;;;6.33;100.00
49216;BME280;45943;53.148;8.204;2022-12-05T05:39:00;102005.38;;;6.36;100.00
49216;BME280;45943;53.148;8.204;2022-12-05T05:41:28;102013.28;;;6.39;100.00
49216;BME280;45943;53.148;8.204;2022-12-05T05:43:56;102007.78;;;6.42;100.00
49216;BME280;45943;53.148;8.204;2022-12-05T05:46:23;102006.84;;;6.43;100.00
49216;BME280;45943;53.148;8.204;2022-12-05T05:48:51;102007.72;;;6.44;100.00
49216;BME280;45943;53.148;8.204;2022-12-05T05:51:18;102009.44;;;6.45;100.00
49216;BME280;45943;53.148;8.204;2022-12-05T05:53:45;101999.66;;;6.45;100.00
49216;BME280;45943;53.148;8.204;2022-12-05T05:56:13;102007.50;;;6.48;100.00
49216;BME280;45943;53.148;8.204;2022-12-05T05:58:41;102003.94;;;6.49;100.00
49216;BME280;45943;53.148;8.204;2022-12-05T06:01:08;102008.31;;;6.50;100.00
49216;BME280;45943;53.148;8.204;2022-12-05T06:03:35;102003.72;;;6.54;100.00
49216;BME280;45943;53.148;8.204;2022-12-05T06:06:03;102003.63;;;6.55;100.00
49216;BME280;45943;53.148;8.204;2022-12-05T06:08:34;102009.81;;;6.56;100.00
49216;BME280;45943;53.148;8.204;2022-12-05T06:11:05;102004.41;;;6.57;100.00
49216;BME280;45943;53.148;8.204;2022-12-05T06:13:33;102008.03;;;6.56;100.00
49216;BME280;45943;53.148;8.204;2022-12-05T06:15:59;102001.91;;;6.54;100.00
49216;BME280;45943;53.148;8.204;2022-12-05T06:18:26;101995.16;;;6.85;100.00
49216;BME280;45943;53.148;8.204;2022-12-05T06:20:52;101999.44;;;6.70;100.00
49216;BME280;45943;53.148;8.204;2022-12-05T06:23:19;101999.84;;;6.61;100.00
49216;BME280;45943;53.148;8.204;2022-12-05T06:25:50;102000.03;;;6.56;100.00
49216;BME280;45943;53.148;8.204;2022-12-05T06:28:18;102001.03;;;6.54;100.00
49216;BME280;45943;53.148;8.204;2022-12-05T06:30:45;102008.97;;;6.55;100.00
49216;BME280;45943;53.148;8.204;2022-12-05T06:33:11;102007.31;;;6.53;100.00
49216;BME280;45943;53.148;8.204;2022-12-05T06:35:38;102003.63;;;6.55;100.00
49216;BME280;45943;53.148;8.204;2022-12-05T06:38:04;102003.84;;;6.51;100.00
49216;BME280;45943;53.148;8.204;2022-12-05T06:40:31;102006.44;;;6.52;100.00
49216;BME280;45943;53.148;8.204;2022-12-05T06:42:57;102004.78;;;6.50;100.00
49216;BME280;45943;53.148;8.204;2022-12-05T06:45:24;102009.13;;;6.52;100.00
49216;BME280;45943;53.148;8.204;2022-12-05T06:47:50;102010.06;;;6.51;100.00
49216;BME280;45943;53.148;8.204;2022-12-05T06:50:17;102009.97;;;6.53;100.00
49216;BME280;45943;53.148;8.204;2022-12-05T06:52:43;102006.22;;;6.57;100.00
49216;BME280;45943;53.148;8.204;2022-12-05T06:55:09;102009.81;;;6.56;100.00
49216;BME280;45943;53.148;8.204;2022-12-05T06:57:35;102013.44;;;6.55;100.00
49216;BME280;45943;53.148;8.204;2022-12-05T07:00:02;102012.50;;;6.56;100.00
49216;BME280;45943;53.148;8.204;2022-12-05T07:02:56;102014.38;;;6.54;100.00
49216;BME280;45943;53.148;8.204;2022-12-05T07:05:22;102010.91;;;6.52;100.00
49216;BME280;45943;53.148;8.204;2022-12-05T07:07:48;102018.06;;;6.51;100.00
49216;BME280;45943;53.148;8.204;2022-12-05T07:10:14;102008.09;;;6.55;100.00
49216;BME280;45943;53.148;8.204;2022-12-05T07:12:40;102015.91;;;6.59;100.00
49216;BME280;45943;53.148;8.204;2022-12-05T07:15:06;102014.22;;;6.57;100.00
49216;BME280;45943;53.148;8.204;2022-12-05T07:17:36;102012.78;;;6.89;100.00
49216;BME280;45943;53.148;8.204;2022-12-05T07:20:04;102010.19;;;6.67;100.00
49216;BME280;45943;53.148;8.204;2022-12-05T07:22:33;102006.59;;;7.80;100.00
49216;BME280;45943;53.148;8.204;2022-12-05T07:25:00;102005.81;;;7.95;100.00
49216;BME280;45943;53.148;8.204;2022-12-05T07:27:26;102004.47;;;8.03;100.00
49216;BME280;45943;53.148;8.204;2022-12-05T07:29:52;101996.34;;;7.53;100.00
49216;BME280;45943;53.148;8.204;2022-12-05T07:32:18;102004.38;;;6.78;100.00
49216;BME280;45943;53.148;8.204;2022-12-05T07:34:44;102005.44;;;6.55;100.00
49216;BME280;45943;53.148;8.204;2022-12-05T07:37:10;102009.03;;;6.54;100.00
49216;BME280;45943;53.148;8.204;2022-12-05T07:39:38;102003.34;;;6.43;100.00
49216;BME280;45943;53.148;8.204;2022-12-05T07:42:04;101999.50;;;6.48;100.00
49216;BME280;45943;53.148;8.204;2022-12-05T07:44:30;101996.66;;;6.53;100.00
49216;BME280;45943;53.148;8.204;2022-12-05T07:46:57;101997.44;;;6.55;100.00
49216;BME280;45943;53.148;8.204;2022-12-05T07:49:23;101995.63;;;6.55;100.00
49216;BME280;45943;53.148;8.204;2022-12-05T07:51:49;101998.53;;;6.51;100.00
49216;BME280;45943;53.148;8.204;2022-12-05T07:54:15;102000.25;;;6.52;100.00
49216;BME280;45943;53.148;8.204;2022-12-05T07:56:41;101998.31;;;6.55;100.00
49216;BME280;45943;53.148;8.204;2022-12-05T07:59:07;101997.38;;;6.56;100.00
49216;BME280;45943;53.148;8.204;2022-12-05T08:01:33;101998.59;;;6.49;100.00
49216;BME280;45943;53.148;8.204;2022-12-05T08:04:01;101997.59;;;6.52;100.00
49216;BME280;45943;53.148;8.204;2022-12-05T08:06:28;101998.63;;;6.48;100.00
49216;BME280;45943;53.148;8.204;2022-12-05T08:08:55;102004.78;;;6.50;100.00
49216;BME280;45943;53.148;8.204;2022-12-05T08:11:22;102001.31;;;6.48;100.00
49216;BME280;45943;53.148;8.204;2022-12-05T08:13:57;102013.16;;;6.61;100.00
49216;BME280;45943;53.148;8.204;2022-12-05T08:16:24;102005.25;;;6.59;100.00
49216;BME280;45943;53.148;8.204;2022-12-05T08:18:56;102013.44;;;6.55;100.00
49216;BME280;45943;53.148;8.204;2022-12-05T08:21:23;102009.63;;;6.60;100.00
49216;BME280;45943;53.148;8.204;2022-12-05T08:23:50;102006.16;;;6.58;100.00
49216;BME280;45943;53.148;8.204;2022-12-05T08:26:21;102015.50;;;6.48;100.00
49216;BME280;45943;53.148;8.204;2022-12-05T08:28:50;102015.22;;;6.54;100.00
49216;BME280;45943;53.148;8.204;2022-12-05T08:31:18;102017.03;;;6.54;100.00
49216;BME280;45943;53.148;8.204;2022-12-05T08:33:45;102018.84;;;6.53;100.00
49216;BME280;45943;53.148;8.204;2022-12-05T08:36:12;102016.03;;;6.56;100.00
49216;BME280;45943;53.148;8.204;2022-12-05T08:38:42;102011.00;;;6.50;100.00
49216;BME280;45943;53.148;8.204;2022-12-05T08:41:10;102015.38;;;6.51;100.00
49216;BME280;45943;53.148;8.204;2022-12-05T08:43:40;102020.09;;;6.45;100.00
49216;BME280;45943;53.148;8.204;2022-12-05T08:46:07;102019.97;;;6.48;100.00
49216;BME280;45943;53.148;8.204;2022-12-05T08:48:33;102010.16;;;6.48;100.00
49216;BME280;45943;53.148;8.204;2022-12-05T08:51:07;102027.09;;;6.47;100.00
49216;BME280;45943;53.148;8.204;2022-12-05T08:53:35;102019.31;;;6.43;100.00
49216;BME280;45943;53.148;8.204;2022-12-05T08:56:02;102029.84;;;6.46;100.00
49216;BME280;45943;53.148;8.204;2022-12-05T08:58:29;102028.09;;;6.45;100.00
49216;BME280;45943;53.148;8.204;2022-12-05T09:01:03;102035.03;;;6.49;100.00
49216;BME280;45943;53.148;8.204;2022-12-05T09:03:37;102030.50;;;6.51;100.00
49216;BME280;45943;53.148;8.204;2022-12-05T09:06:07;102037.91;;;6.44;100.00
49216;BME280;45943;53.148;8.204;2022-12-05T09:08:36;102030.63;;;6.48;100.00
49216;BME280;45943;53.148;8.204;2022-12-05T09:11:03;102027.91;;;6.49;100.00
49216;BME280;45943;53.148;8.204;2022-12-05T09:13:33;102033.03;;;6.54;100.00
49216;BME280;45943;53.148;8.204;2022-12-05T09:16:04;102032.97;;;6.55;100.00
49216;BME280;45943;53.148;8.204;2022-12-05T09:18:34;102024.81;;;6.58;100.00
49216;BME280;45943;53.148;8.204;2022-12-05T09:21:06;102029.25;;;6.59;100.00
49216;BME280;45943;53.148;8.204;2022-12-05T09:23:33;102024.88;;;6.57;100.00
49216;BME280;45943;53.148;8.204;2022-12-05T09:25:59;102023.38;;;6.51;100.00
49216;BME280;45943;53.148;8.204;2022-12-05T09:28:30;102024.34;;;6.49;100.00
49216;BME280;45943;53.148;8.204;2022-12-05T09:30:58;102027.78;;;6.52;100.00
49216;BME280;45943;53.148;8.204;2022-12-05T09:33:29;102028.63;;;6.53;100.00
49216;BME280;45943;53.148;8.204;2022-12-05T09:35:56;102027.78;;;6.52;100.00
49216;BME280;45943;53.148;8.204;2022-12-05T09:38:22;102036.91;;;6.47;100.00
49216;BME280;45943;53.148;8.204;2022-12-05T09:44:19;102040.78;;;6.40;100.00
49216;BME280;45943;53.148;8.204;2022-12-05T09:46:57;102039.16;;;6.36;100.00
49216;BME280;45943;53.148;8.204;2022-12-05T09:49:32;102035.38;;;6.41;100.00
49216;BME280;45943;53.148;8.204;2022-12-05T09:52:00;102034.16;;;6.48;100.00
49216;BME280;45943;53.148;8.204;2022-12-05T09:54:28;102033.25;;;6.49;100.00
49216;BME280;45943;53.148;8.204;2022-12-05T09:56:56;102026.13;;;6.50;100.00
49216;BME280;45943;53.148;8.204;2022-12-05T09:59:22;102028.72;;;6.51;100.00
49216;BME280;45943;53.148;8.204;2022-12-05T10:01:56;102027.69;;;6.54;100.00
49216;BME280;45943;53.148;8.204;2022-12-05T10:08:01;102029.56;;;6.52;100.00
49216;BME280;45943;53.148;8.204;2022-12-05T10:13:51;102027.78;;;6.52;100.00
49216;BME280;45943;53.148;8.204;2022-12-05T10:16:31;102028.63;;;6.53;100.00
49216;BME280;45943;53.148;8.204;2022-12-05T10:19:05;102034.75;;;6.55;100.00
49216;BME280;45943;53.148;8.204;2022-12-05T10:24:31;102025.81;;;6.56;100.00
49216;BME280;45943;53.148;8.204;2022-12-05T10:27:03;102023.38;;;6.51;100.00
49216;BME280;45943;53.148;8.204;2022-12-05T10:32:15;102020.03;;;6.46;100.00
49216;BME280;45943;53.148;8.204;2022-12-05T10:34:45;102019.97;;;6.48;100.00
49216;BME280;45943;53.148;8.204;2022-12-05T10:37:21;102012.66;;;6.53;100.00
49216;BME280;45943;53.148;8.204;2022-12-05T10:39:49;102020.38;;;6.59;100.00
49216;BME280;45943;53.148;8.204;2022-12-05T10:44:55;102015.09;;;6.57;100.00
49216;BME280;45943;53.148;8.204;2022-12-05T10:47:23;102012.41;;;6.57;100.00
49216;BME280;45943;53.148;8.204;2022-12-05T10:49:50;102006.16;;;6.58;100.00
49216;BME280;45943;53.148;8.204;2022-12-05T10:52:18;102003.38;;;6.61;100.00
49216;BME280;45943;53.148;8.204;2022-12-05T10:55:02;101999.69;;;6.64;100.00
49216;BME280;45943;53.148;8.204;2022-12-05T10:57:31;102011.44;;;6.60;100.00
49216;BME280;45943;53.148;8.204;2022-12-05T10:59:57;102007.09;;;6.57;100.00
49216;BME280;45943;53.148;8.204;2022-12-05T11:02:37;102004.16;;;6.64;100.00
49216;BME280;45943;53.148;8.204;2022-12-05T11:05:05;102004.94;;;6.66;100.00
49216;BME280;45943;53.148;8.204;2022-12-05T11:07:33;102005.16;;;6.61;100.00
49216;BME280;45943;53.148;8.204;2022-12-05T11:10:04;101996.31;;;6.60;100.00
49216;BME280;45943;53.148;8.204;2022-12-05T11:12:45;101999.69;;;6.64;100.00
49216;BME280;45943;53.148;8.204;2022-12-05T11:17:40;101995.06;;;6.68;100.00
49216;BME280;45943;53.148;8.204;2022-12-05T11:22:45;101989.03;;;6.64;100.00
49216;BME280;45943;53.148;8.204;2022-12-05T11:27:58;101984.81;;;6.58;100.00
49216;BME280;45943;53.148;8.204;2022-12-05T11:33:57;101978.72;;;6.56;100.00
49216;BME280;45943;53.148;8.204;2022-12-05T11:36:47;101978.50;;;6.61;100.00
49216;BME280;45943;53.148;8.204;2022-12-05T11:39:19;101984.63;;;6.63;100.00
49216;BME280;45943;53.148;8.204;2022-12-05T11:47:21;101972.00;;;6.67;100.00
49216;BME280;45943;53.148;8.204;2022-12-05T11:50:02;101963.94;;;6.68;100.00
49216;BME280;45943;53.148;8.204;2022-12-05T11:53:48;101969.06;;;6.73;100.00
49216;BME280;45943;53.148;8.204;2022-12-05T11:58:53;101966.75;;;6.65;100.00
49216;BME280;45943;53.148;8.204;2022-12-05T12:01:52;101972.44;;;6.57;100.00
49216;BME280;45943;53.148;8.204;2022-12-05T12:10:17;101968.94;;;6.37;100.00
49216;BME280;45943;53.148;8.204;2022-12-05T12:13:10;101965.72;;;6.30;100.00
49216;BME280;45943;53.148;8.204;2022-12-05T12:21:53;101979.94;;;6.29;100.00
49216;BME280;45943;53.148;8.204;2022-12-05T12:24:34;101974.28;;;6.16;100.00
49216;BME280;45943;53.148;8.204;2022-12-05T12:27:57;101969.59;;;6.02;100.00
49216;BME280;45943;53.148;8.204;2022-12-05T12:30:27;101972.34;;;5.99;100.00
49216;BME280;45943;53.148;8.204;2022-12-05T12:40:49;101968.50;;;6.07;100.00
49216;BME280;45943;53.148;8.204;2022-12-05T12:46:11;101960.50;;;6.07;100.00
49216;BME280;45943;53.148;8.204;2022-12-05T12:49:19;101967.31;;;6.14;100.00
49216;BME280;45943;53.148;8.204;2022-12-05T12:52:03;101961.84;;;6.17;100.00
49216;BME280;45943;53.148;8.204;2022-12-05T13:00:02;101954.53;;;6.22;100.00
49216;BME280;45943;53.148;8.204;2022-12-05T13:13:05;101960.84;;;5.99;100.00
49216;BME280;45943;53.148;8.204;2022-12-05T13:15:46;101955.59;;;5.97;100.00
49216;BME280;45943;53.148;8.204;2022-12-05T13:18:20;101961.28;;;5.88;100.00
49216;BME280;45943;53.148;8.204;2022-12-05T13:21:06;101955.09;;;5.88;100.00
49216;BME280;45943;53.148;8.204;2022-12-05T13:23:37;101961.13;;;5.93;100.00
49216;BME280;45943;53.148;8.204;2022-12-05T13:26:10;101962.00;;;5.93;100.00
49216;BME280;45943;53.148;8.204;2022-12-05T13:28:48;101964.66;;;5.93;100.00
49216;BME280;45943;53.148;8.204;2022-12-05T13:31:17;101964.38;;;5.99;100.00
49216;BME280;45943;53.148;8.204;2022-12-05T13:33:45;101966.13;;;6.00;100.00
49216;BME280;45943;53.148;8.204;2022-12-05T13:36:22;101959.94;;;6.00;100.00
49216;BME280;45943;53.148;8.204;2022-12-05T13:41:58;101969.41;;;5.85;100.00
49216;BME280;45943;53.148;8.204;2022-12-05T13:44:42;101961.19;;;5.91;100.00
49216;BME280;45943;53.148;8.204;2022-12-05T13:47:27;101962.13;;;5.90;100.00
49216;BME280;45943;53.148;8.204;2022-12-05T13:52:38;101963.00;;;5.91;100.00
49216;BME280;45943;53.148;8.204;2022-12-05T13:57:50;101959.00;;;6.01;100.00
49216;BME280;45943;53.148;8.204;2022-12-05T14:02:51;101964.91;;;6.08;100.00
49216;BME280;45943;53.148;8.204;2022-12-05T14:10:12;101967.38;;;6.12;100.00
49216;BME280;45943;53.148;8.204;2022-12-05T14:18:05;101966.63;;;6.09;100.00
49216;BME280;45943;53.148;8.204;2022-12-05T14:23:48;101966.59;;;6.10;100.00
49216;BME280;45943;53.148;8.204;2022-12-05T14:29:07;101972.66;;;6.14;100.00
49216;BME280;45943;53.148;8.204;2022-12-05T14:34:31;101968.41;;;6.10;100.00
49216;BME280;45943;53.148;8.204;2022-12-05T14:37:00;101970.91;;;6.13;100.00
49216;BME280;45943;53.148;8.204;2022-12-05T14:42:03;101979.78;;;6.13;100.00
49216;BME280;45943;53.148;8.204;2022-12-05T14:44:51;101972.72;;;6.12;100.00
49216;BME280;45943;53.148;8.204;2022-12-05T14:47:24;101975.38;;;6.12;100.00
49216;BME280;45943;53.148;8.204;2022-12-05T14:49:55;101978.13;;;6.11;100.00
49216;BME280;45943;53.148;8.204;2022-12-05T14:52:26;101976.25;;;6.13;100.00
49216;BME280;45943;53.148;8.204;2022-12-05T14:55:03;101977.97;;;6.14;100.00
49216;BME280;45943;53.148;8.204;2022-12-05T14:57:36;101987.22;;;6.05;100.00
49216;BME280;45943;53.148;8.204;2022-12-05T15:00:16;101976.44;;;6.08;100.00
49216;BME280;45943;53.148;8.204;2022-12-05T15:02:46;101982.38;;;6.15;100.00
49216;BME280;45943;53.148;8.204;2022-12-05T15:07:42;101984.09;;;6.16;100.00
49216;BME280;45943;53.148;8.204;2022-12-05T15:10:15;101975.50;;;6.09;100.00
49216;BME280;45943;53.148;8.204;2022-12-05T15:20:57;101980.44;;;5.76;100.00
49216;BME280;45943;53.148;8.204;2022-12-05T15:29:35;101990.06;;;5.58;100.00
49216;BME280;45943;53.148;8.204;2022-12-05T15:31:50;101987.09;;;5.66;100.00
49216;BME280;45943;53.148;8.204;2022-12-05T15:34:50;101991.16;;;5.74;100.00
49216;BME280;45943;53.148;8.204;2022-12-05T15:37:27;102005.19;;;5.78;100.00
49216;BME280;45943;53.148;8.204;2022-12-05T15:40:13;101998.16;;;5.77;100.00
49216;BME280;45943;53.148;8.204;2022-12-05T15:42:43;101990.22;;;5.75;100.00
49216;BME280;45943;53.148;8.204;2022-12-05T15:47:46;101994.06;;;5.68;100.00
49216;BME280;45943;53.148;8.204;2022-12-05T15:50:15;101997.94;;;5.61;100.00
49216;BME280;45943;53.148;8.204;2022-12-05T15:52:55;101996.81;;;5.67;100.00
49216;BME280;45943;53.148;8.204;2022-12-05T15:58:26;101994.00;;;5.70;100.00
49216;BME280;45943;53.148;8.204;2022-12-05T16:01:05;101997.00;;;5.62;100.00